sensor_id;sensor_type;location;lat;lon;timestamp;pressure;altitude;pressure_sealevel;temperature;humidity
12973;BME280;6551;51.056;9.466;2024-01-30T00:02:13;98829.13;;;11.11;60.15
12973;BME280;6551;51.056;9.466;2024-01-30T00:04:40;98830.25;;;11.23;60.07
12973;BME280;6551;51.056;9.466;2024-01-30T00:07:06;98820.75;;;11.14;58.99
12973;BME280;6551;51.056;9.466;2024-01-30T00:09:31;98826.91;;;11.14;58.77
12973;BME280;6551;51.056;9.466;2024-01-30T00:11:57;98823.09;;;11.24;57.99
12973;BME280;6551;51.056;9.466;2024-01-30T00:14:23;98811.16;;;11.20;57.81
12973;BME280;6551;51.056;9.466;2024-01-30T00:16:49;98819.13;;;11.13;57.61
12973;BME280;6551;51.056;9.466;2024-01-30T00:19:16;98807.00;;;11.10;57.42
12973;BME280;6551;51.056;9.466;2024-01-30T00:21:41;98812.13;;;11.12;57.21
12973;BME280;6551;51.056;9.466;2024-01-30T00:24:07;98815.03;;;11.17;57.41
12973;BME280;6551;51.056;9.466;2024-01-30T00:26:33;98828.44;;;11.02;57.31
12973;BME280;6551;51.056;9.466;2024-01-30T00:28:58;98819.00;;;11.00;57.40
12973;BME280;6551;51.056;9.466;2024-01-30T00:31:24;98813.44;;;10.95;57.30
12973;BME280;6551;51.056;9.466;2024-01-30T00:33:50;98811.34;;;10.90;57.77
12973;BME280;6551;51.056;9.466;2024-01-30T00:36:16;98806.59;;;10.86;58.15
12973;BME280;6551;51.056;9.466;2024-01-30T00:38:42;98809.84;;;10.81;57.78
12973;BME280;6551;51.056;9.466;2024-01-30T00:41:10;98803.13;;;10.85;57.82
12973;BME280;6551;51.056;9.466;2024-01-30T00:43:36;98810.97;;;10.72;57.63
12973;BME280;6551;51.056;9.466;2024-01-30T00:46:02;98801.91;;;10.67;57.25
12973;BME280;6551;51.056;9.466;2024-01-30T00:48:28;98815.59;;;10.64;57.36
12973;BME280;6551;51.056;9.466;2024-01-30T00:50:54;98809.03;;;10.60;57.40
12973;BME280;6551;51.056;9.466;2024-01-30T00:53:20;98803.88;;;10.58;57.50
12973;BME280;6551;51.056;9.466;2024-01-30T00:55:46;98805.66;;;10.51;58.00
12973;BME280;6551;51.056;9.466;2024-01-30T00:58:13;98810.84;;;10.59;58.44
12973;BME280;6551;51.056;9.466;2024-01-30T01:00:39;98818.97;;;10.51;58.29
12973;BME280;6551;51.056;9.466;2024-01-30T01:03:05;98813.31;;;10.39;57.93
12973;BME280;6551;51.056;9.466;2024-01-30T01:05:30;98815.59;;;10.42;57.96
12973;BME280;6551;51.056;9.466;2024-01-30T01:07:56;98814.41;;;10.45;58.63
12973;BME280;6551;51.056;9.466;2024-01-30T01:10:22;98816.25;;;10.44;58.59
12973;BME280;6551;51.056;9.466;2024-01-30T01:12:48;98808.69;;;10.48;58.39
12973;BME280;6551;51.056;9.466;2024-01-30T01:15:15;98812.69;;;10.58;58.11
12973;BME280;6551;51.056;9.466;2024-01-30T01:17:41;98808.94;;;10.53;57.73
12973;BME280;6551;51.056;9.466;2024-01-30T01:20:08;98813.16;;;10.62;58.15
12973;BME280;6551;51.056;9.466;2024-01-30T01:22:34;98824.50;;;10.49;57.65
12973;BME280;6551;51.056;9.466;2024-01-30T01:25:00;98821.72;;;10.57;57.98
12973;BME280;6551;51.056;9.466;2024-01-30T01:27:27;98825.25;;;10.65;58.66
12973;BME280;6551;51.056;9.466;2024-01-30T01:29:53;98814.81;;;10.63;59.09
12973;BME280;6551;51.056;9.466;2024-01-30T01:32:19;98814.09;;;10.76;59.81
12973;BME280;6551;51.056;9.466;2024-01-30T01:34:46;98816.47;;;10.92;60.04
12973;BME280;6551;51.056;9.466;2024-01-30T01:37:13;98820.28;;;11.04;59.93
12973;BME280;6551;51.056;9.466;2024-01-30T01:39:41;98809.91;;;11.15;58.96
12973;BME280;6551;51.056;9.466;2024-01-30T01:42:07;98819.28;;;11.05;58.30
12973;BME280;6551;51.056;9.466;2024-01-30T01:44:33;98815.19;;;11.09;58.30
12973;BME280;6551;51.056;9.466;2024-01-30T01:46:59;98813.09;;;11.04;58.46
12973;BME280;6551;51.056;9.466;2024-01-30T01:49:27;98816.06;;;11.16;59.05
12973;BME280;6551;51.056;9.466;2024-01-30T01:51:55;98814.34;;;11.08;58.48
12973;BME280;6551;51.056;9.466;2024-01-30T01:54:25;98809.94;;;11.22;58.88
12973;BME280;6551;51.056;9.466;2024-01-30T01:56:52;98807.44;;;11.14;57.82
12973;BME280;6551;51.056;9.466;2024-01-30T01:59:20;98802.69;;;11.09;56.99
12973;BME280;6551;51.056;9.466;2024-01-30T02:01:46;98806.41;;;10.87;56.68
12973;BME280;6551;51.056;9.466;2024-01-30T02:04:16;98799.56;;;10.78;56.72
12973;BME280;6551;51.056;9.466;2024-01-30T02:06:43;98800.53;;;10.49;57.27
12973;BME280;6551;51.056;9.466;2024-01-30T02:09:09;98804.25;;;10.34;57.89
12973;BME280;6551;51.056;9.466;2024-01-30T02:11:35;98814.78;;;10.42;57.73
12973;BME280;6551;51.056;9.466;2024-01-30T02:14:05;98803.75;;;10.45;58.22
12973;BME280;6551;51.056;9.466;2024-01-30T02:16:31;98804.22;;;10.48;58.27
12973;BME280;6551;51.056;9.466;2024-01-30T02:18:57;98803.63;;;10.53;57.61
12973;BME280;6551;51.056;9.466;2024-01-30T02:21:23;98804.25;;;10.34;57.16
12973;BME280;6551;51.056;9.466;2024-01-30T02:23:49;98807.31;;;10.16;56.91
12973;BME280;6551;51.056;9.466;2024-01-30T02:26:17;98799.63;;;10.21;57.11
12973;BME280;6551;51.056;9.466;2024-01-30T02:28:42;98798.72;;;9.99;57.18
12973;BME280;6551;51.056;9.466;2024-01-30T02:31:08;98801.47;;;9.91;57.38
12973;BME280;6551;51.056;9.466;2024-01-30T02:33:34;98811.84;;;10.01;57.84
12973;BME280;6551;51.056;9.466;2024-01-30T02:35:59;98797.91;;;9.99;58.30
12973;BME280;6551;51.056;9.466;2024-01-30T02:38:25;98805.53;;;10.02;58.71
12973;BME280;6551;51.056;9.466;2024-01-30T02:40:52;98803.94;;;10.08;58.70
12973;BME280;6551;51.056;9.466;2024-01-30T02:43:18;98798.81;;;10.06;58.22
12973;BME280;6551;51.056;9.466;2024-01-30T02:45:44;98807.09;;;9.96;57.82
12973;BME280;6551;51.056;9.466;2024-01-30T02:48:12;98795.72;;;9.88;58.02
12973;BME280;6551;51.056;9.466;2024-01-30T02:50:38;98797.94;;;9.84;58.68
12973;BME280;6551;51.056;9.466;2024-01-30T02:53:03;98799.41;;;9.72;58.47
12973;BME280;6551;51.056;9.466;2024-01-30T02:55:29;98787.66;;;9.67;59.03
12973;BME280;6551;51.056;9.466;2024-01-30T02:57:55;98795.28;;;9.70;59.15
12973;BME280;6551;51.056;9.466;2024-01-30T03:00:23;98789.22;;;9.76;59.49
12973;BME280;6551;51.056;9.466;2024-01-30T03:02:49;98783.44;;;9.72;59.52
12973;BME280;6551;51.056;9.466;2024-01-30T03:05:14;98782.34;;;9.81;59.42
12973;BME280;6551;51.056;9.466;2024-01-30T03:07:40;98780.88;;;9.93;59.19
12973;BME280;6551;51.056;9.466;2024-01-30T03:10:06;98784.25;;;10.02;60.38
12973;BME280;6551;51.056;9.466;2024-01-30T03:12:32;98782.75;;;10.14;60.46
12973;BME280;6551;51.056;9.466;2024-01-30T03:14:58;98778.38;;;10.28;59.57
12973;BME280;6551;51.056;9.466;2024-01-30T03:17:24;98776.81;;;10.33;59.54
12973;BME280;6551;51.056;9.466;2024-01-30T03:19:50;98781.00;;;10.42;59.05
12973;BME280;6551;51.056;9.466;2024-01-30T03:22:17;98779.41;;;10.48;58.99
12973;BME280;6551;51.056;9.466;2024-01-30T03:24:43;98774.66;;;10.43;58.82
12973;BME280;6551;51.056;9.466;2024-01-30T03:27:09;98774.47;;;10.45;58.72
12973;BME280;6551;51.056;9.466;2024-01-30T03:29:35;98769.53;;;10.42;58.61
12973;BME280;6551;51.056;9.466;2024-01-30T03:32:01;98773.09;;;10.49;58.75
12973;BME280;6551;51.056;9.466;2024-01-30T03:34:28;98769.69;;;10.62;58.59
12973;BME280;6551;51.056;9.466;2024-01-30T03:36:53;98769.22;;;10.51;58.54
12973;BME280;6551;51.056;9.466;2024-01-30T03:39:22;98772.38;;;10.62;58.70
12973;BME280;6551;51.056;9.466;2024-01-30T03:41:48;98770.22;;;10.50;58.06
12973;BME280;6551;51.056;9.466;2024-01-30T03:44:14;98773.72;;;10.51;58.38
12973;BME280;6551;51.056;9.466;2024-01-30T03:46:40;98771.75;;;10.38;57.57
12973;BME280;6551;51.056;9.466;2024-01-30T03:49:06;98759.19;;;10.32;57.58
12973;BME280;6551;51.056;9.466;2024-01-30T03:51:31;98762.28;;;10.15;58.29
12973;BME280;6551;51.056;9.466;2024-01-30T03:53:57;98754.56;;;10.20;58.23
12973;BME280;6551;51.056;9.466;2024-01-30T03:56:22;98756.00;;;10.22;58.05
12973;BME280;6551;51.056;9.466;2024-01-30T03:58:49;98744.00;;;10.12;58.69
12973;BME280;6551;51.056;9.466;2024-01-30T04:01:15;98741.69;;;10.23;58.50
12973;BME280;6551;51.056;9.466;2024-01-30T04:03:41;98744.63;;;10.28;58.31
12973;BME280;6551;51.056;9.466;2024-01-30T04:06:08;98743.66;;;10.36;58.29
12973;BME280;6551;51.056;9.466;2024-01-30T04:08:34;98742.66;;;10.37;58.03
12973;BME280;6551;51.056;9.466;2024-01-30T04:11:04;98739.47;;;10.48;58.27
12973;BME280;6551;51.056;9.466;2024-01-30T04:13:31;98743.09;;;10.40;58.47
12973;BME280;6551;51.056;9.466;2024-01-30T04:15:59;98742.38;;;10.53;58.51
12973;BME280;6551;51.056;9.466;2024-01-30T04:18:27;98748.91;;;10.50;58.63
12973;BME280;6551;51.056;9.466;2024-01-30T04:20:53;98749.16;;;10.55;58.83
12973;BME280;6551;51.056;9.466;2024-01-30T04:23:19;98749.81;;;10.57;58.80
12973;BME280;6551;51.056;9.466;2024-01-30T04:25:45;98745.09;;;10.60;58.71
12973;BME280;6551;51.056;9.466;2024-01-30T04:28:12;98746.63;;;10.69;58.51
12973;BME280;6551;51.056;9.466;2024-01-30T04:30:38;98741.84;;;10.64;58.60
12973;BME280;6551;51.056;9.466;2024-01-30T04:33:04;98745.34;;;10.65;58.12
12973;BME280;6551;51.056;9.466;2024-01-30T04:35:30;98744.28;;;10.59;57.83
12973;BME280;6551;51.056;9.466;2024-01-30T04:37:56;98745.28;;;10.58;57.89
12973;BME280;6551;51.056;9.466;2024-01-30T04:40:22;98751.19;;;10.53;57.87
12973;BME280;6551;51.056;9.466;2024-01-30T04:42:47;98746.25;;;10.50;57.76
12973;BME280;6551;51.056;9.466;2024-01-30T04:45:15;98741.53;;;10.52;57.43
12973;BME280;6551;51.056;9.466;2024-01-30T04:47:40;98742.28;;;10.40;58.07
12973;BME280;6551;51.056;9.466;2024-01-30T04:50:07;98746.13;;;10.37;57.89
12973;BME280;6551;51.056;9.466;2024-01-30T04:52:34;98749.47;;;10.25;58.44
12973;BME280;6551;51.056;9.466;2024-01-30T04:55:00;98750.56;;;10.30;58.01
12973;BME280;6551;51.056;9.466;2024-01-30T04:57:25;98750.13;;;10.27;58.29
12973;BME280;6551;51.056;9.466;2024-01-30T04:59:51;98753.06;;;10.32;58.04
12973;BME280;6551;51.056;9.466;2024-01-30T05:02:17;98753.91;;;10.39;58.31
12973;BME280;6551;51.056;9.466;2024-01-30T05:04:43;98757.03;;;10.42;58.55
12973;BME280;6551;51.056;9.466;2024-01-30T05:07:08;98757.03;;;10.42;58.48
12973;BME280;6551;51.056;9.466;2024-01-30T05:09:34;98754.00;;;10.45;58.50
12973;BME280;6551;51.056;9.466;2024-01-30T05:12:00;98758.19;;;10.54;58.64
12973;BME280;6551;51.056;9.466;2024-01-30T05:14:26;98759.50;;;10.65;58.32
12973;BME280;6551;51.056;9.466;2024-01-30T05:16:51;98757.00;;;10.64;58.12
12973;BME280;6551;51.056;9.466;2024-01-30T05:19:18;98760.47;;;10.57;58.33
12973;BME280;6551;51.056;9.466;2024-01-30T05:21:44;98758.25;;;10.40;58.12
12973;BME280;6551;51.056;9.466;2024-01-30T05:24:10;98762.19;;;10.44;58.23
12973;BME280;6551;51.056;9.466;2024-01-30T05:26:38;98765.47;;;10.46;58.36
12973;BME280;6551;51.056;9.466;2024-01-30T05:29:06;98753.16;;;10.45;58.74
12973;BME280;6551;51.056;9.466;2024-01-30T05:31:33;98757.94;;;10.49;58.72
12973;BME280;6551;51.056;9.466;2024-01-30T05:34:00;98761.16;;;10.66;58.66
12973;BME280;6551;51.056;9.466;2024-01-30T05:36:26;98753.06;;;10.81;58.38
12973;BME280;6551;51.056;9.466;2024-01-30T05:38:52;98757.47;;;10.67;58.83
12973;BME280;6551;51.056;9.466;2024-01-30T05:41:19;98758.44;;;10.87;58.48
12973;BME280;6551;51.056;9.466;2024-01-30T05:43:46;98766.47;;;10.66;57.99
12973;BME280;6551;51.056;9.466;2024-01-30T05:46:14;98762.78;;;10.88;57.61
12973;BME280;6551;51.056;9.466;2024-01-30T05:48:39;98769.41;;;10.78;57.37
12973;BME280;6551;51.056;9.466;2024-01-30T05:51:07;98764.59;;;10.88;58.11
12973;BME280;6551;51.056;9.466;2024-01-30T05:53:33;98760.91;;;10.89;57.60
12973;BME280;6551;51.056;9.466;2024-01-30T05:56:03;98760.09;;;10.88;57.54
12973;BME280;6551;51.056;9.466;2024-01-30T05:58:29;98760.94;;;10.68;57.79
12973;BME280;6551;51.056;9.466;2024-01-30T06:00:54;98763.50;;;10.54;58.61
12973;BME280;6551;51.056;9.466;2024-01-30T06:03:20;98758.72;;;10.71;58.07
12973;BME280;6551;51.056;9.466;2024-01-30T06:05:46;98762.59;;;10.69;58.06
12973;BME280;6551;51.056;9.466;2024-01-30T06:08:12;98758.81;;;10.56;58.42
12973;BME280;6551;51.056;9.466;2024-01-30T06:10:37;98755.88;;;10.73;58.16
12973;BME280;6551;51.056;9.466;2024-01-30T06:13:03;98752.88;;;10.82;57.53
12973;BME280;6551;51.056;9.466;2024-01-30T06:15:29;98751.75;;;10.70;57.90
12973;BME280;6551;51.056;9.466;2024-01-30T06:17:55;98763.09;;;10.79;57.52
12973;BME280;6551;51.056;9.466;2024-01-30T06:20:21;98745.56;;;10.63;57.97
12973;BME280;6551;51.056;9.466;2024-01-30T06:22:46;98749.78;;;10.79;57.88
12973;BME280;6551;51.056;9.466;2024-01-30T06:25:14;98744.50;;;10.85;57.58
12973;BME280;6551;51.056;9.466;2024-01-30T06:27:39;98743.63;;;10.78;57.30
12973;BME280;6551;51.056;9.466;2024-01-30T06:30:06;98752.06;;;10.82;57.15
12973;BME280;6551;51.056;9.466;2024-01-30T06:32:32;98751.94;;;10.69;56.64
12973;BME280;6551;51.056;9.466;2024-01-30T06:35:00;98750.28;;;10.68;56.67
12973;BME280;6551;51.056;9.466;2024-01-30T06:37:26;98746.94;;;10.59;56.96
12973;BME280;6551;51.056;9.466;2024-01-30T06:39:52;98752.91;;;10.61;56.94
12973;BME280;6551;51.056;9.466;2024-01-30T06:42:19;98752.09;;;10.61;56.86
12973;BME280;6551;51.056;9.466;2024-01-30T06:44:45;98746.06;;;10.52;56.77
12973;BME280;6551;51.056;9.466;2024-01-30T06:47:11;98752.41;;;10.51;56.79
12973;BME280;6551;51.056;9.466;2024-01-30T06:49:37;98749.03;;;10.42;56.89
12973;BME280;6551;51.056;9.466;2024-01-30T06:52:06;98751.19;;;10.53;56.71
12973;BME280;6551;51.056;9.466;2024-01-30T06:54:32;98751.13;;;10.47;56.82
12973;BME280;6551;51.056;9.466;2024-01-30T06:56:59;98756.28;;;10.48;57.20
12973;BME280;6551;51.056;9.466;2024-01-30T06:59:24;98751.78;;;10.49;57.50
12973;BME280;6551;51.056;9.466;2024-01-30T07:01:51;98757.16;;;10.55;57.38
12973;BME280;6551;51.056;9.466;2024-01-30T07:04:19;98756.38;;;10.62;57.51
12973;BME280;6551;51.056;9.466;2024-01-30T07:06:44;98755.69;;;10.53;57.55
12973;BME280;6551;51.056;9.466;2024-01-30T07:09:10;98754.31;;;10.57;57.71
12973;BME280;6551;51.056;9.466;2024-01-30T07:11:36;98754.09;;;10.58;57.73
12973;BME280;6551;51.056;9.466;2024-01-30T07:14:04;98750.28;;;10.68;57.87
12973;BME280;6551;51.056;9.466;2024-01-30T07:16:41;98738.50;;;10.77;58.12
12973;BME280;6551;51.056;9.466;2024-01-30T07:19:07;98746.88;;;10.74;57.78
12973;BME280;6551;51.056;9.466;2024-01-30T07:21:35;98747.34;;;10.84;57.59
12973;BME280;6551;51.056;9.466;2024-01-30T07:24:01;98752.88;;;10.82;57.82
12973;BME280;6551;51.056;9.466;2024-01-30T07:26:27;98740.38;;;10.83;57.24
12973;BME280;6551;51.056;9.466;2024-01-30T07:28:53;98745.31;;;10.86;57.60
12973;BME280;6551;51.056;9.466;2024-01-30T07:31:19;98746.56;;;10.90;57.66
12973;BME280;6551;51.056;9.466;2024-01-30T07:33:47;98746.31;;;11.12;57.20
12973;BME280;6551;51.056;9.466;2024-01-30T07:36:14;98742.06;;;11.18;57.24
12973;BME280;6551;51.056;9.466;2024-01-30T07:38:40;98746.78;;;11.16;56.51
12973;BME280;6551;51.056;9.466;2024-01-30T07:41:06;98750.50;;;11.28;56.75
12973;BME280;6551;51.056;9.466;2024-01-30T07:43:31;98748.47;;;11.30;56.33
12973;BME280;6551;51.056;9.466;2024-01-30T07:45:59;98751.06;;;11.17;55.92
12973;BME280;6551;51.056;9.466;2024-01-30T07:48:26;98757.13;;;11.04;55.69
12973;BME280;6551;51.056;9.466;2024-01-30T07:50:53;98763.53;;;11.10;56.48
12973;BME280;6551;51.056;9.466;2024-01-30T07:53:20;98762.84;;;11.29;56.55
12973;BME280;6551;51.056;9.466;2024-01-30T07:55:46;98756.34;;;11.45;56.78
12973;BME280;6551;51.056;9.466;2024-01-30T07:58:12;98759.91;;;11.58;56.16
12973;BME280;6551;51.056;9.466;2024-01-30T08:00:39;98759.59;;;11.74;56.04
12973;BME280;6551;51.056;9.466;2024-01-30T08:03:05;98761.28;;;11.82;56.07
12973;BME280;6551;51.056;9.466;2024-01-30T08:05:31;98763.78;;;11.97;56.23
12973;BME280;6551;51.056;9.466;2024-01-30T08:07:57;98757.00;;;11.94;55.03
12973;BME280;6551;51.056;9.466;2024-01-30T08:10:23;98764.84;;;12.09;55.10
12973;BME280;6551;51.056;9.466;2024-01-30T08:12:49;98753.75;;;12.05;54.65
12973;BME280;6551;51.056;9.466;2024-01-30T08:15:14;98753.56;;;12.07;54.56
12973;BME280;6551;51.056;9.466;2024-01-30T08:17:40;98761.16;;;12.10;54.20
12973;BME280;6551;51.056;9.466;2024-01-30T08:20:07;98762.81;;;12.17;54.86
12973;BME280;6551;51.056;9.466;2024-01-30T08:22:33;98750.88;;;12.13;54.16
12973;BME280;6551;51.056;9.466;2024-01-30T08:24:59;98764.88;;;12.22;54.84
12973;BME280;6551;51.056;9.466;2024-01-30T08:27:25;98762.22;;;12.28;54.45
12973;BME280;6551;51.056;9.466;2024-01-30T08:29:51;98768.41;;;12.36;54.49
12973;BME280;6551;51.056;9.466;2024-01-30T08:32:16;98767.78;;;12.47;54.37
12973;BME280;6551;51.056;9.466;2024-01-30T08:34:43;98771.34;;;12.60;54.71
12973;BME280;6551;51.056;9.466;2024-01-30T08:37:09;98768.47;;;12.68;55.33
12973;BME280;6551;51.056;9.466;2024-01-30T08:39:34;98770.72;;;12.84;54.98
12973;BME280;6551;51.056;9.466;2024-01-30T08:42:00;98777.50;;;13.00;54.63
12973;BME280;6551;51.056;9.466;2024-01-30T08:44:26;98775.66;;;13.14;54.16
12973;BME280;6551;51.056;9.466;2024-01-30T08:46:52;98773.81;;;13.21;53.59
12973;BME280;6551;51.056;9.466;2024-01-30T08:49:20;98773.00;;;13.27;53.77
12973;BME280;6551;51.056;9.466;2024-01-30T08:51:47;98774.19;;;13.31;53.39
12973;BME280;6551;51.056;9.466;2024-01-30T08:54:15;98781.63;;;13.35;53.43
12973;BME280;6551;51.056;9.466;2024-01-30T08:56:41;98774.38;;;13.49;53.63
12973;BME280;6551;51.056;9.466;2024-01-30T08:59:07;98780.75;;;13.55;52.89
12973;BME280;6551;51.056;9.466;2024-01-30T09:01:32;98771.41;;;13.70;53.54
12973;BME280;6551;51.056;9.466;2024-01-30T09:03:58;98772.78;;;13.86;53.26
12973;BME280;6551;51.056;9.466;2024-01-30T09:06:24;98768.59;;;14.03;52.79
12973;BME280;6551;51.056;9.466;2024-01-30T09:08:52;98767.47;;;14.24;52.88
12973;BME280;6551;51.056;9.466;2024-01-30T09:11:19;98764.28;;;14.46;53.11
12973;BME280;6551;51.056;9.466;2024-01-30T09:13:46;98763.75;;;14.62;52.15
12973;BME280;6551;51.056;9.466;2024-01-30T09:16:11;98772.34;;;14.71;52.29
12973;BME280;6551;51.056;9.466;2024-01-30T09:18:37;98771.81;;;14.87;52.51
12973;BME280;6551;51.056;9.466;2024-01-30T09:21:03;98780.81;;;15.17;52.06
12973;BME280;6551;51.056;9.466;2024-01-30T09:23:29;98772.44;;;15.32;51.75
12973;BME280;6551;51.056;9.466;2024-01-30T09:25:56;98779.56;;;15.63;51.61
12973;BME280;6551;51.056;9.466;2024-01-30T09:28:22;98774.94;;;15.70;51.17
12973;BME280;6551;51.056;9.466;2024-01-30T09:30:48;98779.63;;;15.93;50.73
12973;BME280;6551;51.056;9.466;2024-01-30T09:33:15;98773.19;;;16.12;50.54
12973;BME280;6551;51.056;9.466;2024-01-30T09:35:41;98772.09;;;16.01;50.13
12973;BME280;6551;51.056;9.466;2024-01-30T09:38:08;98779.97;;;16.14;50.00
12973;BME280;6551;51.056;9.466;2024-01-30T09:40:34;98771.00;;;16.20;49.74
12973;BME280;6551;51.056;9.466;2024-01-30T09:42:59;98777.09;;;16.27;48.90
12973;BME280;6551;51.056;9.466;2024-01-30T09:45:26;98780.34;;;16.48;49.51
12973;BME280;6551;51.056;9.466;2024-01-30T09:47:53;98772.81;;;16.56;49.65
12973;BME280;6551;51.056;9.466;2024-01-30T09:50:22;98793.09;;;16.52;49.79
12973;BME280;6551;51.056;9.466;2024-01-30T09:52:48;98789.00;;;16.50;50.14
12973;BME280;6551;51.056;9.466;2024-01-30T09:55:16;98794.09;;;16.39;49.54
12973;BME280;6551;51.056;9.466;2024-01-30T09:57:42;98790.00;;;16.37;49.55
12973;BME280;6551;51.056;9.466;2024-01-30T10:00:09;98791.41;;;16.39;49.63
12973;BME280;6551;51.056;9.466;2024-01-30T10:02:35;98787.06;;;16.38;49.32
12973;BME280;6551;51.056;9.466;2024-01-30T10:05:01;98783.88;;;16.18;50.10
12973;BME280;6551;51.056;9.466;2024-01-30T10:07:27;98787.84;;;15.79;51.29
12973;BME280;6551;51.056;9.466;2024-01-30T10:09:53;98789.84;;;15.48;52.20
12973;BME280;6551;51.056;9.466;2024-01-30T10:12:22;98786.13;;;15.24;53.08
12973;BME280;6551;51.056;9.466;2024-01-30T10:14:48;98774.50;;;14.56;53.67
12973;BME280;6551;51.056;9.466;2024-01-30T10:17:15;98781.16;;;14.09;55.29
12973;BME280;6551;51.056;9.466;2024-01-30T10:19:41;98784.91;;;14.01;55.19
12973;BME280;6551;51.056;9.466;2024-01-30T10:22:09;98774.69;;;13.85;55.49
12973;BME280;6551;51.056;9.466;2024-01-30T10:24:34;98777.63;;;14.53;55.12
12973;BME280;6551;51.056;9.466;2024-01-30T10:27:00;98778.75;;;14.95;53.93
12973;BME280;6551;51.056;9.466;2024-01-30T10:29:27;98781.13;;;15.28;53.46
12973;BME280;6551;51.056;9.466;2024-01-30T10:32:04;98775.16;;;15.87;52.78
12973;BME280;6551;51.056;9.466;2024-01-30T10:34:32;98770.22;;;16.02;51.91
12973;BME280;6551;51.056;9.466;2024-01-30T10:37:11;98769.28;;;16.26;51.29
12973;BME280;6551;51.056;9.466;2024-01-30T10:39:39;98765.91;;;16.30;51.36
12973;BME280;6551;51.056;9.466;2024-01-30T10:42:11;98762.41;;;16.60;51.06
12973;BME280;6551;51.056;9.466;2024-01-30T10:45:12;98750.41;;;16.97;49.76
12973;BME280;6551;51.056;9.466;2024-01-30T10:47:43;98747.34;;;16.70;50.31
12973;BME280;6551;51.056;9.466;2024-01-30T10:50:09;98758.13;;;16.41;50.98
12973;BME280;6551;51.056;9.466;2024-01-30T10:52:38;98752.16;;;16.09;51.69
12973;BME280;6551;51.056;9.466;2024-01-30T10:55:05;98748.56;;;15.97;51.86
12973;BME280;6551;51.056;9.466;2024-01-30T10:57:37;98747.53;;;15.98;52.18
12973;BME280;6551;51.056;9.466;2024-01-30T11:00:14;98744.16;;;16.02;52.26
12973;BME280;6551;51.056;9.466;2024-01-30T11:02:43;98750.50;;;16.08;51.91
12973;BME280;6551;51.056;9.466;2024-01-30T11:05:10;98742.16;;;16.16;51.78
12973;BME280;6551;51.056;9.466;2024-01-30T11:07:39;98737.56;;;16.16;51.92
12973;BME280;6551;51.056;9.466;2024-01-30T11:10:09;98735.66;;;16.05;52.29
12973;BME280;6551;51.056;9.466;2024-01-30T11:12:39;98730.97;;;16.83;51.89
12973;BME280;6551;51.056;9.466;2024-01-30T11:15:18;98734.59;;;17.35;50.73
12973;BME280;6551;51.056;9.466;2024-01-30T11:17:51;98733.63;;;17.88;49.49
12973;BME280;6551;51.056;9.466;2024-01-30T11:20:31;98730.34;;;18.14;48.47
12973;BME280;6551;51.056;9.466;2024-01-30T11:22:58;98724.78;;;18.04;48.49
12973;BME280;6551;51.056;9.466;2024-01-30T11:25:26;98717.56;;;18.21;48.64
12973;BME280;6551;51.056;9.466;2024-01-30T11:27:55;98725.53;;;18.16;48.44
12973;BME280;6551;51.056;9.466;2024-01-30T11:30:29;98726.63;;;17.64;48.82
12973;BME280;6551;51.056;9.466;2024-01-30T11:33:14;98727.47;;;16.83;50.38
12973;BME280;6551;51.056;9.466;2024-01-30T11:35:43;98725.63;;;16.42;52.15
12973;BME280;6551;51.056;9.466;2024-01-30T11:38:11;98714.41;;;15.86;52.89
12973;BME280;6551;51.056;9.466;2024-01-30T11:40:39;98724.88;;;15.75;53.94
12973;BME280;6551;51.056;9.466;2024-01-30T11:43:07;98715.28;;;15.68;54.38
12973;BME280;6551;51.056;9.466;2024-01-30T11:45:34;98713.91;;;15.41;54.09
12973;BME280;6551;51.056;9.466;2024-01-30T11:48:00;98719.22;;;15.47;54.36
12973;BME280;6551;51.056;9.466;2024-01-30T11:50:33;98717.53;;;15.71;54.36
12973;BME280;6551;51.056;9.466;2024-01-30T11:53:00;98709.78;;;15.38;54.64
12973;BME280;6551;51.056;9.466;2024-01-30T11:55:26;98715.53;;;15.42;54.40
12973;BME280;6551;51.056;9.466;2024-01-30T11:57:56;98716.28;;;15.31;54.94
12973;BME280;6551;51.056;9.466;2024-01-30T12:00:23;98716.09;;;15.32;54.97
12973;BME280;6551;51.056;9.466;2024-01-30T12:02:54;98719.75;;;15.38;55.39
12973;BME280;6551;51.056;9.466;2024-01-30T12:05:24;98722.28;;;15.69;55.09
12973;BME280;6551;51.056;9.466;2024-01-30T12:07:50;98719.78;;;15.86;54.57
12973;BME280;6551;51.056;9.466;2024-01-30T12:10:17;98715.22;;;16.04;54.81
12973;BME280;6551;51.056;9.466;2024-01-30T12:12:49;98714.25;;;16.28;54.11
12973;BME280;6551;51.056;9.466;2024-01-30T12:15:18;98716.03;;;16.34;53.71
12973;BME280;6551;51.056;9.466;2024-01-30T12:17:45;98716.69;;;16.30;53.39
12973;BME280;6551;51.056;9.466;2024-01-30T12:20:13;98715.59;;;16.19;53.55
12973;BME280;6551;51.056;9.466;2024-01-30T12:22:47;98720.81;;;16.32;53.32
12973;BME280;6551;51.056;9.466;2024-01-30T12:25:20;98718.03;;;16.51;53.33
12973;BME280;6551;51.056;9.466;2024-01-30T12:27:48;98718.78;;;16.28;53.69
12973;BME280;6551;51.056;9.466;2024-01-30T12:30:21;98720.53;;;16.22;54.05
12973;BME280;6551;51.056;9.466;2024-01-30T12:32:50;98714.47;;;15.97;54.05
12973;BME280;6551;51.056;9.466;2024-01-30T12:35:20;98719.91;;;16.09;54.45
12973;BME280;6551;51.056;9.466;2024-01-30T12:37:49;98711.66;;;15.92;54.87
12973;BME280;6551;51.056;9.466;2024-01-30T12:40:17;98706.47;;;15.61;55.19
12973;BME280;6551;51.056;9.466;2024-01-30T12:42:45;98707.22;;;15.68;54.95
12973;BME280;6551;51.056;9.466;2024-01-30T12:45:14;98708.00;;;15.87;54.97
12973;BME280;6551;51.056;9.466;2024-01-30T12:47:42;98703.69;;;16.15;54.60
12973;BME280;6551;51.056;9.466;2024-01-30T12:50:08;98698.81;;;15.94;54.43
12973;BME280;6551;51.056;9.466;2024-01-30T12:52:35;98701.31;;;15.77;54.99
12973;BME280;6551;51.056;9.466;2024-01-30T12:55:02;98697.06;;;16.00;55.10
12973;BME280;6551;51.056;9.466;2024-01-30T12:57:30;98707.25;;;16.39;54.83
12973;BME280;6551;51.056;9.466;2024-01-30T12:59:57;98706.88;;;16.35;54.32
12973;BME280;6551;51.056;9.466;2024-01-30T13:02:24;98702.50;;;16.53;54.09
12973;BME280;6551;51.056;9.466;2024-01-30T13:04:51;98706.41;;;16.57;53.90
12973;BME280;6551;51.056;9.466;2024-01-30T13:07:17;98692.78;;;16.40;53.94
12973;BME280;6551;51.056;9.466;2024-01-30T13:09:45;98693.66;;;16.22;54.91
12973;BME280;6551;51.056;9.466;2024-01-30T13:12:12;98690.03;;;15.87;55.60